Time;durP1;ratioP1;P1;durP2;ratioP2;P2;SDS_P1;SDS_P2;PMS_P1;PMS_P2;Temp;Humidity;BMP_temperature;BMP_pressure;BME280_temperature;BME280_humidity;BME280_pressure;Samples;Min_cycle;Max_cycle;Signal;HPM_P1;HPM_P2
2023/02/01 00:00:03;;;;;;;2.35;0.30;;;22.30;47.60;;;;;;5067406;28;20051;-57
2023/02/01 00:02:32;;;;;;;0.68;0.30;;;22.30;47.50;;;;;;5067143;28;20155;-53
2023/02/01 00:04:59;;;;;;;1.55;1.00;;;22.30;47.50;;;;;;5067374;28;20126;-54
2023/02/01 00:07:27;;;;;;;0.95;0.10;;;22.30;47.30;;;;;;5067296;28;20048;-53
2023/02/01 00:09:54;;;;;;;1.67;0.20;;;22.30;47.20;;;;;;5067397;28;20036;-55
2023/02/01 00:12:21;;;;;;;2.00;0.30;;;22.30;47.20;;;;;;5066888;28;20873;-54
2023/02/01 00:14:48;;;;;;;5.68;0.68;;;22.30;47.60;;;;;;5067293;28;20044;-56
2023/02/01 00:17:15;;;;;;;1.40;0.63;;;22.30;47.00;;;;;;5067466;28;20052;-56
2023/02/01 00:19:42;;;;;;;1.08;0.30;;;22.20;47.10;;;;;;5065885;28;20044;-56
2023/02/01 00:22:09;;;;;;;1.35;0.60;;;22.20;47.10;;;;;;5067016;28;20143;-56
2023/02/01 00:24:39;;;;;;;1.75;0.22;;;22.20;47.10;;;;;;5067161;28;20509;-54
2023/02/01 00:27:06;;;;;;;6.00;0.68;;;22.30;47.10;;;;;;5066474;28;20076;-52
2023/02/01 00:29:33;;;;;;;1.20;0.20;;;22.20;47.10;;;;;;5057059;28;20514;-52
2023/02/01 00:32:00;;;;;;;3.13;0.95;;;22.20;47.10;;;;;;5047524;28;20065;-54
2023/02/01 00:34:28;;;;;;;3.33;0.15;;;22.20;47.00;;;;;;5067006;28;20094;-52
2023/02/01 00:36:55;;;;;;;2.58;0.10;;;22.10;46.90;;;;;;5066817;28;20801;-52
2023/02/01 00:39:23;;;;;;;1.13;0.30;;;22.10;46.80;;;;;;5066425;28;20040;-52
2023/02/01 00:41:51;;;;;;;0.43;0.20;;;22.10;46.90;;;;;;5066241;28;20051;-56
2023/02/01 00:44:18;;;;;;;1.77;0.38;;;22.10;46.90;;;;;;5065609;28;20733;-55
2023/02/01 00:46:45;;;;;;;4.70;0.15;;;22.10;46.90;;;;;;5065377;28;20055;-55
2023/02/01 00:49:12;;;;;;;0.52;0.10;;;22.10;46.90;;;;;;5065115;28;20478;-55
2023/02/01 00:51:39;;;;;;;1.60;0.57;;;22.10;46.70;;;;;;5066868;28;20048;-52
2023/02/01 00:54:07;;;;;;;2.42;1.15;;;22.10;46.70;;;;;;5053968;28;20132;-53
2023/02/01 00:56:34;;;;;;;0.30;0.13;;;22.10;46.70;;;;;;5045964;28;20095;-53
2023/02/01 00:59:03;;;;;;;0.68;0.10;;;22.00;46.90;;;;;;5055883;28;20693;-55
2023/02/01 01:01:30;;;;;;;1.30;0.10;;;22.00;46.70;;;;;;5045538;28;20053;-53
2023/02/01 01:04:01;;;;;;;4.88;0.20;;;22.00;46.80;;;;;;5065809;28;20129;-55
2023/02/01 01:06:31;;;;;;;0.95;0.40;;;22.00;46.90;;;;;;5057521;28;20108;-53
2023/02/01 01:09:00;;;;;;;2.85;0.55;;;22.00;47.40;;;;;;5046119;28;20048;-54
2023/02/01 01:11:31;;;;;;;1.05;0.10;;;22.00;46.70;;;;;;5046120;28;20045;-51
2023/02/01 01:13:59;;;;;;;2.00;0.20;;;22.00;46.70;;;;;;5045818;28;20067;-52
2023/02/01 01:16:30;;;;;;;2.53;0.20;;;21.90;46.80;;;;;;5047251;28;20070;-55
2023/02/01 01:18:58;;;;;;;2.38;0.30;;;22.00;46.80;;;;;;5045827;28;20045;-51
2023/02/01 01:21:26;;;;;;;2.30;1.38;;;22.00;46.80;;;;;;5064240;28;20056;-52
2023/02/01 01:23:54;;;;;;;2.42;0.47;;;21.90;46.70;;;;;;5065130;28;20908;-52
2023/02/01 01:26:24;;;;;;;1.20;0.30;;;21.90;46.60;;;;;;5065176;28;20575;-52
2023/02/01 01:28:53;;;;;;;3.05;0.22;;;21.90;46.60;;;;;;5065945;28;20524;-50
2023/02/01 01:31:21;;;;;;;1.50;0.10;;;21.90;46.70;;;;;;5065673;28;20505;-52
2023/02/01 01:33:51;;;;;;;1.45;0.20;;;21.90;46.70;;;;;;5065394;28;20159;-50
2023/02/01 01:36:19;;;;;;;2.75;0.40;;;21.90;46.60;;;;;;5081384;28;20127;-55
2023/02/01 01:38:46;;;;;;;0.77;0.30;;;21.80;46.50;;;;;;5063728;28;20109;-53
2023/02/01 01:41:16;;;;;;;0.93;0.30;;;21.90;46.70;;;;;;5065282;28;20056;-51
2023/02/01 01:43:51;;;;;;;0.40;0.10;;;21.80;46.30;;;;;;5064130;28;20052;-50
2023/02/01 01:46:21;;;;;;;3.35;0.20;;;21.80;46.40;;;;;;5063931;28;20051;-52
2023/02/01 01:48:54;;;;;;;1.77;0.70;;;21.80;46.40;;;;;;5065238;28;20126;-51
2023/02/01 01:51:24;;;;;;;1.00;0.40;;;21.80;46.20;;;;;;5063834;28;20049;-54
2023/02/01 01:54:00;;;;;;;0.45;0.45;;;21.80;46.30;;;;;;5063420;28;20044;-52
2023/02/01 01:56:30;;;;;;;1.30;0.10;;;21.80;46.40;;;;;;5063495;28;20076;-51
2023/02/01 01:58:58;;;;;;;3.50;0.30;;;21.80;46.40;;;;;;5080365;28;20594;-52
2023/02/01 02:01:25;;;;;;;0.65;0.32;;;21.70;46.30;;;;;;5065256;28;20123;-50
2023/02/01 02:03:55;;;;;;;5.10;0.47;;;21.80;46.30;;;;;;5064985;28;20402;-52
2023/02/01 02:06:34;;;;;;;3.05;0.20;;;21.70;46.00;;;;;;5064890;28;20519;-49
2023/02/01 02:09:02;;;;;;;2.75;0.30;;;21.70;45.60;;;;;;5062870;28;20866;-51
2023/02/01 02:11:29;;;;;;;9.43;0.63;;;21.70;45.70;;;;;;5064859;28;20095;-54
2023/02/01 02:13:59;;;;;;;1.15;0.22;;;21.70;45.70;;;;;;5065186;28;20125;-53
2023/02/01 02:16:47;;;;;;;1.88;0.20;;;21.70;45.70;;;;;;5065012;28;20220;-51
2023/02/01 02:19:43;;;;;;;3.45;0.75;;;21.70;45.70;;;;;;5046928;28;20067;-51
2023/02/01 02:22:42;;;;;;;4.72;0.88;;;21.70;45.50;;;;;;5064621;28;20653;-54
2023/02/01 02:25:56;;;;;;;4.18;0.90;;;21.70;45.60;;;;;;5002214;28;20061;-52
2023/02/01 02:28:50;;;;;;;2.88;0.70;;;21.70;45.60;;;;;;4983575;28;20080;-51
2023/02/01 02:31:38;;;;;;;2.47;0.77;;;21.60;45.70;;;;;;4943403;28;20092;-53
2023/02/01 02:34:15;;;;;;;1.88;0.10;;;21.60;45.80;;;;;;4966505;28;20057;-53
2023/02/01 02:36:54;;;;;;;1.92;0.35;;;21.60;45.70;;;;;;4966320;28;20046;-53
2023/02/01 02:39:27;;;;;;;3.45;0.30;;;21.60;45.80;;;;;;4966559;28;20808;-52
2023/02/01 02:47:50;;;;;;;1.48;0.10;;;21.60;45.50;;;;;;4909418;29;20052;-54
2023/02/01 03:04:25;;;;;;;4.55;0.40;;;21.50;44.90;;;;;;5002128;28;20049;-55
2023/02/01 03:06:54;;;;;;;3.08;0.68;;;21.60;44.80;;;;;;4985668;28;20097;-51
2023/02/01 03:09:32;;;;;;;6.43;1.10;;;21.60;44.90;;;;;;4969596;28;20510;-51
2023/02/01 03:14:56;;;;;;;6.15;0.75;;;21.60;44.70;;;;;;4986196;28;20204;-52
2023/02/01 03:17:31;;;;;;;4.10;0.20;;;21.60;44.60;;;;;;5003261;28;20061;-51
2023/02/01 03:20:02;;;;;;;1.98;0.43;;;21.60;44.80;;;;;;4985964;28;20129;-55
2023/02/01 03:22:33;;;;;;;5.88;0.30;;;21.60;44.30;;;;;;5071973;28;20140;-53
2023/02/01 03:25:05;;;;;;;4.85;0.30;;;21.50;44.20;;;;;;5063505;28;20044;-51
2023/02/01 03:27:36;;;;;;;4.97;0.60;;;21.50;44.40;;;;;;5065522;28;20036;-50
2023/02/01 03:30:10;;;;;;;1.95;0.30;;;21.50;44.30;;;;;;5066904;28;20052;-53
2023/02/01 03:35:27;;;;;;;3.42;0.22;;;21.50;44.30;;;;;;5066008;28;20048;-54
2023/02/01 03:38:02;;;;;;;1.15;0.17;;;21.50;44.10;;;;;;5066754;28;20136;-51
2023/02/01 03:40:34;;;;;;;6.90;0.25;;;21.50;44.00;;;;;;5066570;28;20045;-51
2023/02/01 03:43:05;;;;;;;1.95;0.25;;;21.50;44.20;;;;;;5066660;28;20050;-53
2023/02/01 03:45:38;;;;;;;3.92;0.75;;;21.50;44.10;;;;;;5066720;28;20074;-52
2023/02/01 03:48:07;;;;;;;2.92;0.10;;;21.50;44.00;;;;;;5066495;28;20029;-51
2023/02/01 03:50:37;;;;;;;5.72;0.35;;;21.50;44.00;;;;;;5066110;28;20072;-54
2023/02/01 03:53:11;;;;;;;1.85;0.85;;;21.50;43.70;;;;;;5066700;28;20060;-54
2023/02/01 03:55:39;;;;;;;4.28;0.35;;;21.50;43.90;;;;;;5066517;28;20165;-54
2023/02/01 03:58:12;;;;;;;0.90;0.17;;;21.50;43.80;;;;;;5066088;28;20056;-53
2023/02/01 04:00:39;;;;;;;4.43;0.30;;;21.50;43.60;;;;;;5067693;28;20083;-53
2023/02/01 04:03:08;;;;;;;3.55;0.63;;;21.50;43.70;;;;;;5067393;28;20128;-52
2023/02/01 04:05:35;;;;;;;3.97;0.20;;;21.50;43.60;;;;;;5067380;28;20041;-52
2023/02/01 04:08:06;;;;;;;2.13;0.65;;;21.50;43.80;;;;;;5066043;28;20505;-51
2023/02/01 04:10:34;;;;;;;2.00;0.40;;;21.50;43.80;;;;;;5067346;28;20509;-53
2023/02/01 04:13:01;;;;;;;3.55;0.88;;;21.50;43.80;;;;;;5066905;28;20067;-53
2023/02/01 04:15:28;;;;;;;1.88;0.20;;;21.50;43.70;;;;;;5067068;28;20714;-52
2023/02/01 04:17:55;;;;;;;4.75;0.50;;;21.40;43.70;;;;;;5066698;28;20036;-51
2023/02/01 04:20:22;;;;;;;2.05;0.10;;;21.50;43.50;;;;;;5066942;28;20048;-53
2023/02/01 04:22:49;;;;;;;3.42;0.30;;;21.50;43.30;;;;;;5067059;28;20045;-51
2023/02/01 04:25:17;;;;;;;6.20;1.17;;;21.50;43.40;;;;;;5066740;28;20058;-52
2023/02/01 04:27:48;;;;;;;6.40;0.52;;;21.50;43.40;;;;;;5066891;28;20072;-53
2023/02/01 04:30:16;;;;;;;7.32;0.32;;;21.40;43.40;;;;;;5051134;28;20045;-53
2023/02/01 04:32:43;;;;;;;3.67;0.30;;;21.40;43.20;;;;;;5046634;28;20129;-54
2023/02/01 04:35:11;;;;;;;1.33;0.30;;;21.40;43.20;;;;;;5056305;28;20127;-51
2023/02/01 04:37:38;;;;;;;5.10;0.38;;;21.40;43.40;;;;;;5065771;28;20041;-53
2023/02/01 04:40:06;;;;;;;3.58;0.50;;;21.40;43.20;;;;;;5066671;28;20891;-51
2023/02/01 04:42:33;;;;;;;3.00;0.25;;;21.40;43.10;;;;;;5066256;28;20109;-51
2023/02/01 04:45:02;;;;;;;4.05;0.50;;;21.40;43.20;;;;;;5054512;28;20127;-53
2023/02/01 04:47:29;;;;;;;4.13;0.50;;;21.40;43.00;;;;;;5046533;28;20048;-52
2023/02/01 04:49:57;;;;;;;3.45;0.30;;;21.40;43.00;;;;;;5053161;28;20068;-50
2023/02/01 04:52:24;;;;;;;2.95;0.30;;;21.40;43.10;;;;;;5066453;28;20132;-52
2023/02/01 04:54:51;;;;;;;7.80;0.20;;;21.40;43.10;;;;;;5066448;28;20051;-51
2023/02/01 04:57:18;;;;;;;2.25;0.28;;;21.40;43.10;;;;;;5064419;28;20061;-52
2023/02/01 04:59:45;;;;;;;2.00;0.50;;;21.40;43.10;;;;;;5065914;28;20408;-48
2023/02/01 05:02:13;;;;;;;2.58;0.10;;;21.40;43.70;;;;;;5062947;28;20133;-51
2023/02/01 05:04:40;;;;;;;5.60;0.73;;;21.40;42.90;;;;;;5066331;28;20036;-54
2023/02/01 05:07:07;;;;;;;2.22;0.40;;;21.40;42.90;;;;;;5051320;28;20045;-50
2023/02/01 05:09:34;;;;;;;3.70;0.38;;;21.40;42.90;;;;;;5046357;28;20033;-52
2023/02/01 05:14:48;;;;;;;5.28;0.30;;;21.40;43.00;;;;;;5046216;28;20704;-52
2023/02/01 05:17:17;;;;;;;4.20;0.30;;;21.40;42.90;;;;;;5044550;28;20140;-55
2023/02/01 05:19:44;;;;;;;3.95;0.40;;;21.40;43.00;;;;;;5051124;28;20049;-52
2023/02/01 05:22:11;;;;;;;2.58;0.20;;;21.40;42.80;;;;;;5066523;28;20165;-55
2023/02/01 05:24:39;;;;;;;4.85;0.73;;;21.40;42.80;;;;;;5066884;28;20083;-55
2023/02/01 05:27:06;;;;;;;3.53;1.20;;;21.40;42.70;;;;;;5066522;28;20102;-54
2023/02/01 05:29:33;;;;;;;1.17;0.43;;;21.40;42.70;;;;;;5053802;28;20090;-54
2023/02/01 05:32:01;;;;;;;5.13;0.55;;;21.40;42.60;;;;;;5046190;28;20049;-48
2023/02/01 05:34:29;;;;;;;5.55;0.55;;;21.40;42.80;;;;;;5046133;28;20072;-51
2023/02/01 05:36:57;;;;;;;3.25;0.40;;;21.30;42.70;;;;;;5045511;28;20075;-53
2023/02/01 05:39:24;;;;;;;2.90;0.45;;;21.30;42.70;;;;;;5045581;28;20139;-54
2023/02/01 05:41:51;;;;;;;3.83;0.20;;;21.30;42.50;;;;;;5050604;28;20045;-53
2023/02/01 05:44:18;;;;;;;4.03;0.90;;;21.30;42.60;;;;;;5065077;28;20171;-53
2023/02/01 05:46:45;;;;;;;1.67;0.20;;;21.30;42.70;;;;;;5065171;28;20139;-50
2023/02/01 05:49:13;;;;;;;1.48;0.30;;;21.30;42.60;;;;;;5064811;28;20044;-53
2023/02/01 05:51:41;;;;;;;2.80;0.20;;;21.30;42.60;;;;;;5065289;28;20036;-50
2023/02/01 05:54:09;;;;;;;1.73;0.60;;;21.30;42.50;;;;;;5064783;28;20880;-50
2023/02/01 05:56:37;;;;;;;5.85;0.20;;;21.30;42.60;;;;;;5064451;28;20052;-53
2023/02/01 05:59:05;;;;;;;6.18;0.55;;;21.30;42.50;;;;;;5064453;28;20117;-50
2023/02/01 06:01:32;;;;;;;2.42;0.32;;;21.30;42.60;;;;;;5065033;28;20041;-51
2023/02/01 06:03:59;;;;;;;6.95;1.15;;;21.30;42.40;;;;;;5064899;28;20052;-52
2023/02/01 06:06:26;;;;;;;7.93;0.20;;;21.30;42.50;;;;;;5061431;28;20079;-53
2023/02/01 06:08:54;;;;;;;4.03;0.38;;;21.30;42.50;;;;;;5060154;28;20044;-53
2023/02/01 06:11:22;;;;;;;4.07;0.20;;;21.30;42.40;;;;;;5064248;28;20124;-50
2023/02/01 06:13:49;;;;;;;4.15;0.25;;;21.30;42.40;;;;;;5064495;28;20466;-51
2023/02/01 06:16:16;;;;;;;1.52;0.20;;;21.30;42.30;;;;;;5064606;28;20045;-49
2023/02/01 06:18:43;;;;;;;7.00;0.45;;;21.30;42.30;;;;;;5064756;28;20136;-49
2023/02/01 06:21:13;;;;;;;4.88;0.35;;;21.30;42.30;;;;;;5064316;28;20597;-50
2023/02/01 06:23:41;;;;;;;2.58;0.30;;;21.30;42.30;;;;;;5062832;28;20048;-50
2023/02/01 06:26:11;;;;;;;4.35;0.77;;;21.30;42.30;;;;;;5064590;28;20041;-50
2023/02/01 06:28:39;;;;;;;5.25;0.75;;;21.30;42.00;;;;;;5062351;28;20045;-51
2023/02/01 06:31:07;;;;;;;7.40;1.33;;;21.30;42.10;;;;;;5044306;28;20059;-48
2023/02/01 06:33:35;;;;;;;6.10;0.40;;;21.30;42.00;;;;;;5042886;28;20049;-52
2023/02/01 06:36:04;;;;;;;8.40;0.30;;;21.20;42.10;;;;;;5042837;28;20052;-55
2023/02/01 06:38:34;;;;;;;5.47;0.47;;;21.30;42.10;;;;;;5062153;28;20106;-50
2023/02/01 06:41:03;;;;;;;8.07;0.57;;;21.30;42.00;;;;;;5061038;28;20130;-53
2023/02/01 06:43:32;;;;;;;5.15;0.52;;;21.30;42.00;;;;;;5063864;28;20053;-52
2023/02/01 06:46:04;;;;;;;4.38;0.45;;;21.30;42.00;;;;;;5064047;28;20056;-53
2023/02/01 06:48:32;;;;;;;3.60;1.08;;;21.30;42.00;;;;;;5063181;28;20062;-49
2023/02/01 06:50:59;;;;;;;4.25;0.47;;;21.30;41.90;;;;;;5064422;28;20576;-51
2023/02/01 06:53:26;;;;;;;4.97;0.52;;;21.30;41.90;;;;;;5064081;28;20076;-51
2023/02/01 06:55:54;;;;;;;4.13;0.77;;;21.30;41.80;;;;;;5060826;28;20033;-51
2023/02/01 06:58:21;;;;;;;4.65;0.25;;;21.20;41.60;;;;;;5079478;28;20041;-50
2023/02/01 07:00:53;;;;;;;3.33;0.43;;;21.30;41.70;;;;;;5064404;28;20055;-54
2023/02/01 07:03:20;;;;;;;5.68;0.20;;;21.20;41.50;;;;;;5068232;28;20040;-53
2023/02/01 07:05:48;;;;;;;3.65;0.50;;;21.20;41.50;;;;;;5067860;28;20051;-52
2023/02/01 07:08:15;;;;;;;0.80;0.35;;;21.20;41.60;;;;;;5066905;28;20045;-51
2023/02/01 07:10:42;;;;;;;8.15;0.93;;;21.20;41.60;;;;;;5068104;28;20064;-50
2023/02/01 07:13:09;;;;;;;3.63;0.20;;;21.20;41.60;;;;;;5067688;28;20428;-53
2023/02/01 07:15:37;;;;;;;7.93;0.30;;;21.20;41.70;;;;;;5066749;28;20071;-53
2023/02/01 07:18:05;;;;;;;2.80;0.20;;;21.20;41.40;;;;;;5068379;28;20450;-54
2023/02/01 07:20:32;;;;;;;4.65;0.52;;;21.20;41.50;;;;;;5067748;28;20517;-54
2023/02/01 07:23:00;;;;;;;4.88;1.05;;;21.20;41.60;;;;;;5067676;28;20071;-53
2023/02/01 07:25:27;;;;;;;4.50;0.68;;;21.20;41.40;;;;;;5068145;28;20529;-55
2023/02/01 07:27:55;;;;;;;6.78;0.22;;;21.20;41.30;;;;;;5067923;28;20040;-55
2023/02/01 07:30:22;;;;;;;4.10;0.82;;;21.20;41.40;;;;;;5049427;28;20417;-50
2023/02/01 07:32:49;;;;;;;6.38;0.73;;;21.20;41.40;;;;;;5048348;28;20063;-56
2023/02/01 07:35:17;;;;;;;3.40;0.60;;;21.20;41.40;;;;;;5048245;28;20471;-55
2023/02/01 07:37:45;;;;;;;4.47;0.35;;;21.30;41.30;;;;;;5052877;28;20037;-55
2023/02/01 07:40:13;;;;;;;1.10;0.30;;;21.30;41.30;;;;;;5047848;28;20076;-53
2023/02/01 07:42:40;;;;;;;4.40;0.47;;;21.30;41.30;;;;;;5060014;28;20048;-55
2023/02/01 07:45:08;;;;;;;3.10;0.43;;;21.30;41.20;;;;;;5067697;28;20033;-55
2023/02/01 07:47:35;;;;;;;8.55;1.33;;;21.30;41.30;;;;;;5067487;28;20036;-52
2023/02/01 07:50:02;;;;;;;4.85;0.30;;;21.30;41.20;;;;;;5068022;28;20036;-54
2023/02/01 07:52:31;;;;;;;6.50;0.60;;;21.30;41.20;;;;;;5067468;28;20049;-55
2023/02/01 07:54:59;;;;;;;5.47;0.60;;;21.30;41.10;;;;;;5067521;28;20047;-55
2023/02/01 07:57:26;;;;;;;3.92;0.17;;;21.20;41.00;;;;;;5067311;28;20052;-53
2023/02/01 08:02:42;;;;;;;1.55;0.20;;;21.30;41.00;;;;;;5067076;28;20416;-51
2023/02/01 08:05:09;;;;;;;4.93;0.35;;;21.30;41.10;;;;;;5066737;28;20036;-47
2023/02/01 08:07:38;;;;;;;8.55;0.70;;;21.30;41.90;;;;;;5067236;28;20060;-51
2023/02/01 08:10:10;;;;;;;4.20;0.75;;;21.30;42.30;;;;;;5066881;28;20043;-48
2023/02/01 08:12:38;;;;;;;7.25;1.27;;;21.30;42.60;;;;;;5066824;28;20053;-50
2023/02/01 08:15:06;;;;;;;5.47;0.50;;;21.20;42.80;;;;;;5067010;28;20040;-48
2023/02/01 08:17:33;;;;;;;12.75;0.80;;;21.20;42.90;;;;;;5066877;28;20102;-51
2023/02/01 08:20:00;;;;;;;14.18;0.73;;;21.20;43.10;;;;;;5060557;28;20037;-53
2023/02/01 08:22:32;;;;;;;10.95;1.75;;;21.20;42.70;;;;;;5057061;28;20140;-48
2023/02/01 08:25:01;;;;;;;6.82;0.57;;;21.20;42.40;;;;;;5059693;28;20431;-49
2023/02/01 08:27:28;;;;;;;7.80;0.45;;;21.20;42.10;;;;;;5050018;28;20049;-49
2023/02/01 08:29:56;;;;;;;5.45;1.45;;;21.20;42.30;;;;;;5054811;28;20056;-50
2023/02/01 08:32:23;;;;;;;8.07;0.63;;;21.10;42.30;;;;;;5053341;28;20143;-50
2023/02/01 08:34:50;;;;;;;6.35;1.27;;;21.10;42.40;;;;;;5050062;28;20040;-52
2023/02/01 08:37:17;;;;;;;6.20;1.40;;;21.10;42.60;;;;;;5055605;28;20163;-53
2023/02/01 08:39:44;;;;;;;8.32;1.23;;;21.10;43.10;;;;;;5060418;28;20037;-51
2023/02/01 08:44:58;;;;;;;4.47;1.27;;;21.20;42.80;;;;;;5066069;28;20115;-55
2023/02/01 08:47:25;;;;;;;8.40;0.90;;;21.20;42.80;;;;;;5054237;28;20075;-59
2023/02/01 08:49:53;;;;;;;3.67;1.15;;;21.20;42.50;;;;;;5056377;28;20642;-50
2023/02/01 08:52:20;;;;;;;3.70;0.70;;;21.20;42.30;;;;;;5049592;28;20040;-60
2023/02/01 08:54:47;;;;;;;6.07;1.27;;;21.20;42.60;;;;;;5056421;28;20040;-55
2023/02/01 08:57:16;;;;;;;4.00;0.85;;;21.20;42.50;;;;;;5058899;28;20517;-53
2023/02/01 08:59:44;;;;;;;9.40;1.27;;;21.30;42.70;;;;;;5060484;28;20143;-55
2023/02/01 09:02:13;;;;;;;6.28;1.20;;;21.30;42.40;;;;;;5055462;28;20112;-51
2023/02/01 09:04:40;;;;;;;6.15;0.50;;;21.30;42.80;;;;;;5047399;28;20037;-49
2023/02/01 09:07:08;;;;;;;12.80;2.00;;;21.30;42.90;;;;;;5051664;28;20040;-49
2023/02/01 09:09:35;;;;;;;7.32;0.50;;;21.40;43.10;;;;;;5048547;28;20055;-49
2023/02/01 09:12:02;;;;;;;5.68;0.63;;;21.50;43.20;;;;;;5056246;28;20462;-46
2023/02/01 09:14:31;;;;;;;6.68;0.85;;;21.50;43.10;;;;;;5059570;28;20041;-47
2023/02/01 09:16:59;;;;;;;4.85;0.50;;;21.60;43.00;;;;;;5049737;28;20127;-50
2023/02/01 09:19:26;;;;;;;4.80;0.95;;;21.60;43.00;;;;;;5054612;28;20045;-49
2023/02/01 09:21:53;;;;;;;5.03;0.50;;;21.60;42.90;;;;;;5053889;28;20115;-48
2023/02/01 09:24:20;;;;;;;5.50;0.60;;;21.60;42.80;;;;;;5050664;28;20041;-47
2023/02/01 09:26:47;;;;;;;5.85;0.68;;;21.70;42.90;;;;;;5044844;28;20048;-49
2023/02/01 09:29:14;;;;;;;3.25;0.52;;;21.70;42.80;;;;;;5047162;28;20064;-49
2023/02/01 09:31:43;;;;;;;2.83;0.38;;;21.70;42.80;;;;;;5045672;28;20060;-47
2023/02/01 09:34:10;;;;;;;7.20;1.15;;;21.80;42.80;;;;;;5055210;28;20479;-51
2023/02/01 09:36:37;;;;;;;4.22;0.60;;;21.80;42.70;;;;;;5059356;28;20045;-49
2023/02/01 09:39:05;;;;;;;8.57;0.60;;;21.80;42.70;;;;;;5049280;28;20549;-46
2023/02/01 09:41:42;;;;;;;2.95;0.70;;;21.80;42.70;;;;;;5054451;28;20413;-49
2023/02/01 09:44:22;;;;;;;4.85;0.75;;;21.80;42.70;;;;;;5056142;28;20072;-52
2023/02/01 09:46:55;;;;;;;8.32;1.05;;;21.80;42.70;;;;;;5049235;28;20079;-47
2023/02/01 09:49:28;;;;;;;2.50;0.40;;;21.90;42.70;;;;;;5058501;28;20072;-49
2023/02/01 09:51:57;;;;;;;3.10;0.30;;;21.90;42.70;;;;;;5054060;28;20555;-49
2023/02/01 09:54:27;;;;;;;5.95;0.57;;;21.90;42.60;;;;;;5049445;28;20045;-51
2023/02/01 09:57:00;;;;;;;8.02;1.00;;;21.90;42.60;;;;;;5058340;28;20155;-47
2023/02/01 09:59:36;;;;;;;4.32;0.35;;;21.90;42.60;;;;;;5050131;28;20049;-48
2023/02/01 10:02:13;;;;;;;3.88;0.68;;;22.00;42.70;;;;;;5050416;28;20045;-53
2023/02/01 10:04:41;;;;;;;4.50;0.63;;;21.90;42.60;;;;;;5049095;28;20486;-51
2023/02/01 10:07:20;;;;;;;8.95;1.33;;;21.90;42.60;;;;;;5049410;28;20066;-60
2023/02/01 10:09:59;;;;;;;5.22;0.30;;;22.00;42.80;;;;;;5057568;28;20382;-48
2023/02/01 10:12:55;;;;;;;12.98;0.30;;;22.00;42.90;;;;;;5054516;28;20086;-45
2023/02/01 10:15:36;;;;;;;5.03;0.88;;;22.00;42.90;;;;;;5048810;28;20056;-41
2023/02/01 10:18:19;;;;;;;10.07;1.02;;;22.00;42.90;;;;;;5052554;28;20072;-45
2023/02/01 10:20:58;;;;;;;6.90;0.57;;;22.00;42.70;;;;;;5043965;28;20577;-46
2023/02/01 10:23:40;;;;;;;12.13;1.63;;;22.10;42.40;;;;;;5042835;28;20102;-44
2023/02/01 10:26:18;;;;;;;4.70;0.55;;;22.10;42.30;;;;;;5044632;28;20191;-44
2023/02/01 10:28:51;;;;;;;6.72;0.93;;;22.10;42.10;;;;;;5044766;28;20048;-44
2023/02/01 10:31:19;;;;;;;6.32;0.65;;;22.10;41.90;;;;;;5044098;28;20081;-46
2023/02/01 10:33:51;;;;;;;5.68;0.60;;;22.10;41.80;;;;;;5064840;28;20036;-43
2023/02/01 10:36:24;;;;;;;13.90;1.20;;;22.10;41.70;;;;;;5064595;28;20064;-46
2023/02/01 10:38:51;;;;;;;5.95;0.73;;;22.10;41.50;;;;;;5069078;28;20033;-43
2023/02/01 10:41:21;;;;;;;2.65;0.57;;;22.10;41.50;;;;;;5065392;28;20472;-43
2023/02/01 10:43:52;;;;;;;3.35;1.25;;;22.10;41.40;;;;;;5067014;28;20124;-44
2023/02/01 10:46:19;;;;;;;3.30;0.40;;;22.10;41.30;;;;;;5068944;28;20041;-45
2023/02/01 10:48:49;;;;;;;3.85;0.47;;;22.10;41.10;;;;;;5068767;28;20041;-46
2023/02/01 10:51:22;;;;;;;3.05;0.57;;;22.10;41.10;;;;;;5065946;28;20045;-46
2023/02/01 10:53:55;;;;;;;1.83;0.20;;;22.10;40.90;;;;;;5059252;28;20047;-43
2023/02/01 10:56:24;;;;;;;3.03;0.22;;;22.10;40.70;;;;;;5068310;28;20052;-44
2023/02/01 10:58:52;;;;;;;4.18;0.65;;;22.10;40.70;;;;;;5068779;28;20835;-44
2023/02/01 11:01:22;;;;;;;2.65;0.28;;;22.10;40.50;;;;;;5068641;28;20497;-47
2023/02/01 11:03:56;;;;;;;5.68;0.30;;;22.10;40.50;;;;;;5068211;28;20033;-46
2023/02/01 11:06:28;;;;;;;4.50;1.08;;;22.10;40.50;;;;;;5068605;28;20041;-47
2023/02/01 11:08:57;;;;;;;2.20;0.40;;;22.10;40.40;;;;;;5068707;28;20041;-46
2023/02/01 11:11:25;;;;;;;6.22;0.57;;;22.10;40.40;;;;;;5068376;28;20128;-44
2023/02/01 11:13:57;;;;;;;4.78;1.08;;;22.10;40.40;;;;;;5068386;28;20420;-45
2023/02/01 11:16:36;;;;;;;4.78;0.40;;;22.10;40.60;;;;;;5068182;28;20060;-44
2023/02/01 11:19:05;;;;;;;4.88;0.60;;;22.10;40.50;;;;;;5068056;28;20949;-44
2023/02/01 11:21:33;;;;;;;3.10;0.30;;;22.00;40.60;;;;;;5068575;28;20049;-44
2023/02/01 11:24:03;;;;;;;5.45;0.95;;;22.00;40.70;;;;;;5068348;28;20127;-43
2023/02/01 11:26:32;;;;;;;6.28;0.73;;;22.00;40.50;;;;;;5067970;28;20833;-46
2023/02/01 11:29:02;;;;;;;2.45;0.20;;;22.00;40.40;;;;;;5067884;28;20568;-44
2023/02/01 11:31:30;;;;;;;3.55;0.22;;;22.00;40.40;;;;;;5067815;28;20045;-43
2023/02/01 11:34:01;;;;;;;3.72;0.22;;;22.00;40.30;;;;;;5067760;28;20040;-44
2023/02/01 11:36:33;;;;;;;4.70;1.55;;;22.00;40.30;;;;;;5052432;28;20055;-47
2023/02/01 11:39:19;;;;;;;6.28;1.35;;;22.00;40.20;;;;;;5048005;28;20041;-43
2023/02/01 11:41:59;;;;;;;5.00;0.50;;;22.00;40.20;;;;;;5054308;28;20113;-48
2023/02/01 11:44:32;;;;;;;6.45;1.33;;;22.00;40.30;;;;;;5067733;28;20477;-46
2023/02/01 11:47:23;;;;;;;3.03;0.52;;;21.90;40.30;;;;;;5066778;28;20127;-46
2023/02/01 11:49:52;;;;;;;3.45;0.40;;;22.00;40.40;;;;;;5068249;28;20098;-50
2023/02/01 11:52:36;;;;;;;2.80;0.45;;;21.90;40.30;;;;;;5066200;28;20072;-44
2023/02/01 11:55:23;;;;;;;3.85;0.40;;;21.90;40.80;;;;;;5067830;28;20040;-45
2023/02/01 11:58:02;;;;;;;7.75;1.20;;;21.90;40.20;;;;;;5067602;28;20053;-47
2023/02/01 12:00:59;;;;;;;5.47;0.90;;;21.90;40.50;;;;;;5067744;28;20043;-43
2023/02/01 12:04:12;;;;;;;8.30;0.90;;;21.90;40.40;;;;;;5066057;28;20064;-44
2023/02/01 12:06:50;;;;;;;4.40;0.52;;;21.80;40.30;;;;;;5065707;28;20052;-44
2023/02/01 12:09:42;;;;;;;1.15;0.40;;;21.90;40.30;;;;;;5067224;28;20057;-43
2023/02/01 12:12:20;;;;;;;3.85;0.68;;;21.90;40.20;;;;;;5067360;28;20059;-45
2023/02/01 12:15:03;;;;;;;3.15;0.77;;;21.90;40.10;;;;;;5065647;28;20051;-45
2023/02/01 12:17:59;;;;;;;2.20;0.30;;;21.90;40.20;;;;;;5082361;28;20080;-44
2023/02/01 12:20:55;;;;;;;4.68;1.05;;;21.90;40.50;;;;;;5066866;28;20052;-49
2023/02/01 12:23:36;;;;;;;3.10;0.30;;;22.00;40.60;;;;;;5066878;28;20040;-45
2023/02/01 12:26:36;;;;;;;3.33;0.95;;;22.00;40.70;;;;;;5067097;28;20048;-47
2023/02/01 12:29:25;;;;;;;4.63;0.40;;;22.00;40.80;;;;;;5061163;28;20091;-45
2023/02/01 12:32:07;;;;;;;1.88;0.55;;;22.10;40.70;;;;;;5046775;28;20137;-44
2023/02/01 12:34:50;;;;;;;5.80;0.73;;;22.10;40.80;;;;;;5046855;28;20045;-47
2023/02/01 12:37:28;;;;;;;5.03;1.13;;;22.20;40.80;;;;;;5046851;28;20391;-46
2023/02/01 12:40:05;;;;;;;4.80;1.05;;;22.10;40.70;;;;;;5057936;28;20433;-44
2023/02/01 12:42:38;;;;;;;0.93;0.55;;;22.20;40.70;;;;;;5058928;28;20534;-45
2023/02/01 12:45:14;;;;;;;3.40;1.17;;;22.20;40.40;;;;;;5060164;28;20052;-44
2023/02/01 12:47:46;;;;;;;2.72;0.28;;;22.20;40.90;;;;;;5054476;28;20833;-47
2023/02/01 12:50:21;;;;;;;3.65;0.40;;;22.20;40.10;;;;;;5046590;28;20120;-44
2023/02/01 12:52:50;;;;;;;4.47;0.28;;;22.20;39.70;;;;;;5046540;28;20060;-43
2023/02/01 12:55:23;;;;;;;11.27;0.88;;;22.20;39.60;;;;;;5046206;28;20571;-44
2023/02/01 12:57:55;;;;;;;4.95;1.33;;;22.20;39.30;;;;;;5045971;28;20140;-44
2023/02/01 13:00:29;;;;;;;1.25;0.50;;;22.20;39.20;;;;;;5044932;28;20045;-45
2023/02/01 13:03:03;;;;;;;3.28;0.52;;;22.10;39.00;;;;;;5046386;28;20045;-48
2023/02/01 13:05:36;;;;;;;4.82;0.40;;;22.10;38.90;;;;;;5046106;28;20790;-48
2023/02/01 13:08:07;;;;;;;0.98;0.30;;;22.10;38.90;;;;;;5046183;28;20069;-44
2023/02/01 13:10:37;;;;;;;4.93;0.35;;;22.10;38.90;;;;;;5046040;28;20045;-44
2023/02/01 13:13:18;;;;;;;4.55;1.23;;;22.00;38.70;;;;;;5044497;28;20159;-45
2023/02/01 13:15:50;;;;;;;2.53;0.47;;;22.10;38.70;;;;;;5053601;28;20079;-43
2023/02/01 13:18:20;;;;;;;1.10;0.30;;;22.00;38.70;;;;;;5065789;28;20134;-47
2023/02/01 13:20:54;;;;;;;5.57;0.40;;;22.00;38.60;;;;;;5065943;28;20045;-47
2023/02/01 13:23:28;;;;;;;4.63;0.30;;;22.00;38.60;;;;;;5066025;28;20040;-46
2023/02/01 13:25:55;;;;;;;4.40;0.52;;;22.00;38.60;;;;;;5066038;28;20044;-45
2023/02/01 13:28:28;;;;;;;5.93;0.85;;;22.00;38.60;;;;;;5065571;28;20040;-43
2023/02/01 13:31:07;;;;;;;3.05;0.30;;;22.00;38.60;;;;;;5051191;28;20036;-48
2023/02/01 13:33:49;;;;;;;2.00;0.25;;;21.90;38.50;;;;;;5060335;28;20128;-46
2023/02/01 13:36:38;;;;;;;2.97;0.50;;;21.90;38.50;;;;;;5045930;28;20506;-46
2023/02/01 13:39:24;;;;;;;4.35;0.65;;;21.80;38.40;;;;;;5043472;28;20048;-47